Front Circassia — V7JX6 — position and weather

sailwx.info

Track history (hours):
 
Tides and Currents Weather Stations Pressure Air Temp Water Temp Dewpoint Dewpoint Depression Visibility Wind Speed Wind Dir Waves Ship Positions

Front Circassia

Last reported at 2016-Jun-23 22:33 UTC. Time now 2016-Jul-24 12:52 UTC.
Position N 01°54' E 102°24'.
Warning: this ship's position is 30 days out of date.

Length 333 m; draft 10.8 m.

Type: Tanker. MMSI: 538002584.

Date/timePositionNaut miles runAvg speedWind from/ knotsBaromVisibWave heightAir tempDewpointWater temp
2016-Jun-23 22:33N 01°54' E 102°24'1514.0
2016-Jun-23 21:30N 01°46' E 102°37'7512.6
2016-Jun-23 15:32N 01°10' E 103°42'1212.3
2016-Jun-23 14:33N 01°13' E 103°54'3 2.7
2016-Jun-23 13:30N 01°15' E 103°55'0 0.1
2016-Jun-23 11:33N 01°16' E 103°55'0 0.0
2016-Jun-23 10:30N 01°16' E 103°55'0 0.1
2016-Jun-23 08:33N 01°16' E 103°55'0 0.1
2016-Jun-23 07:33N 01°16' E 103°56'10 5.2
2016-Jun-23 05:33N 01°17' E 104°06'  
2016-Jun-15 15:33N 29°32' E 122°41'5 4.1
2016-Jun-15 14:17N 29°34' E 122°36'7 9.0
2016-Jun-15 13:33N 29°38' E 122°29'8 8.3
2016-Jun-15 12:32N 29°43' E 122°22'9 8.5
2016-Jun-15 11:31N 29°49' E 122°14'4 3.2
2016-Jun-15 10:14N 29°53' E 122°13'0 0.2
2016-Jun-15 09:26N 29°53' E 122°13'0 0.1
2016-Jun-15 07:20N 29°53' E 122°13'0 0.3
2016-Jun-15 06:32N 29°53' E 122°13'1 1.4
2016-Jun-15 05:33N 29°54' E 122°12'4 0.3
2016-Jun-14 18:11N 29°56' E 122°16'0 0.0
2016-Jun-14 16:25N 29°56' E 122°16'0 0.0
2016-Jun-14 14:25N 29°56' E 122°16'0 0.0
2016-Jun-14 04:31N 29°56' E 122°16'  
Track history (hours):
 
Tides and Currents Weather Stations Pressure Air Temp Water Temp Dewpoint Dewpoint Depression Visibility Wind Speed Wind Dir Waves Ship Positions

Front Circassia

Last reported at 2016-Jun-23 22:33 UTC. Time now 2016-Jul-24 12:52 UTC.
Position N 01°54' E 102°24'.
Warning: this ship's position is 30 days out of date.

Length 333 m; draft 10.8 m.

Type: Tanker. MMSI: 538002584.

Date/timePositionNaut miles runAvg speedWind from/ knotsBaromVisibWave heightAir tempDewpointWater temp
2016-Jun-23 22:33N 01°54' E 102°24'1514.0
2016-Jun-23 21:30N 01°46' E 102°37'7512.6
2016-Jun-23 15:32N 01°10' E 103°42'1212.3
2016-Jun-23 14:33N 01°13' E 103°54'3 2.7
2016-Jun-23 13:30N 01°15' E 103°55'0 0.1
2016-Jun-23 11:33N 01°16' E 103°55'0 0.0
2016-Jun-23 10:30N 01°16' E 103°55'0 0.1
2016-Jun-23 08:33N 01°16' E 103°55'0 0.1
2016-Jun-23 07:33N 01°16' E 103°56'10 5.2
2016-Jun-23 05:33N 01°17' E 104°06'  
2016-Jun-15 15:33N 29°32' E 122°41'5 4.1
2016-Jun-15 14:17N 29°34' E 122°36'7 9.0
2016-Jun-15 13:33N 29°38' E 122°29'8 8.3
2016-Jun-15 12:32N 29°43' E 122°22'9 8.5
2016-Jun-15 11:31N 29°49' E 122°14'4 3.2
2016-Jun-15 10:14N 29°53' E 122°13'0 0.2
2016-Jun-15 09:26N 29°53' E 122°13'0 0.1
2016-Jun-15 07:20N 29°53' E 122°13'0 0.3
2016-Jun-15 06:32N 29°53' E 122°13'1 1.4
2016-Jun-15 05:33N 29°54' E 122°12'4 0.3
2016-Jun-14 18:11N 29°56' E 122°16'0 0.0
2016-Jun-14 16:25N 29°56' E 122°16'0 0.0
2016-Jun-14 14:25N 29°56' E 122°16'0 0.0
2016-Jun-14 04:31N 29°56' E 122°16'  

Dump ship's entire track history